Time;durP1;ratioP1;P1;durP2;ratioP2;P2;SDS_P1;SDS_P2;PMS_P1;PMS_P2;Temp;Humidity;BMP_temperature;BMP_pressure;BME280_temperature;BME280_humidity;BME280_pressure;Samples;Min_cycle;Max_cycle;Signal;HPM_P1;HPM_P2
2023/08/11 00:01:07;;;;;;;11.77;4.07;;;;;;;12.06;100.00;101497.13;4936290;29;20051;-60
2023/08/11 00:03:35;;;;;;;9.30;3.75;;;;;;;12.03;100.00;101494.75;4935975;29;20059;-61
2023/08/11 00:06:03;;;;;;;7.45;4.07;;;;;;;11.99;100.00;101496.88;4936204;29;20417;-60
2023/08/11 00:08:30;;;;;;;9.43;4.05;;;;;;;11.98;100.00;101502.44;4935599;29;20048;-60
2023/08/11 00:10:56;;;;;;;8.38;4.18;;;;;;;11.96;100.00;101499.03;4935117;29;20067;-60
2023/08/11 00:13:24;;;;;;;12.88;4.28;;;;;;;11.94;100.00;101496.50;4936935;29;20551;-60
2023/08/11 00:15:50;;;;;;;7.45;4.00;;;;;;;11.91;100.00;101497.66;4936612;29;20047;-61
2023/08/11 00:18:17;;;;;;;7.18;3.25;;;;;;;11.98;100.00;101497.91;4936906;29;20079;-60
2023/08/11 00:20:45;;;;;;;7.82;3.80;;;;;;;12.02;100.00;101506.50;4936437;29;20048;-61
2023/08/11 00:23:11;;;;;;;10.90;4.43;;;;;;;12.01;100.00;101494.06;4935441;29;20048;-60
2023/08/11 00:25:38;;;;;;;8.57;3.70;;;;;;;11.99;100.00;101501.44;4936369;29;20107;-60
2023/08/11 00:28:05;;;;;;;8.10;4.30;;;;;;;11.97;100.00;101504.28;4935087;29;20102;-63
2023/08/11 00:30:32;;;;;;;8.05;3.65;;;;;;;11.95;100.00;101500.88;4936504;29;20408;-60
2023/08/11 00:32:59;;;;;;;9.15;4.07;;;;;;;11.91;100.00;101492.28;4936066;29;20051;-60
2023/08/11 00:35:25;;;;;;;12.77;4.93;;;;;;;11.91;100.00;101494.97;4935697;29;20115;-60
2023/08/11 00:37:52;;;;;;;5.90;3.58;;;;;;;11.89;100.00;101501.47;4935959;29;20052;-60
2023/08/11 00:40:19;;;;;;;11.40;4.40;;;;;;;11.87;100.00;101498.94;4935608;29;20058;-60
2023/08/11 00:42:49;;;;;;;18.58;4.50;;;;;;;11.85;100.00;101500.94;4955500;29;20047;-60
2023/08/11 00:45:16;;;;;;;10.25;4.22;;;;;;;11.72;100.00;101495.03;4955546;29;20051;-60
2023/08/11 00:47:44;;;;;;;12.15;3.90;;;;;;;11.78;100.00;101497.16;4954598;29;20106;-62
2023/08/11 00:50:12;;;;;;;13.90;4.15;;;;;;;11.77;100.00;101495.47;4953998;29;20086;-61
2023/08/11 00:52:39;;;;;;;10.18;4.13;;;;;;;11.68;100.00;101507.94;4953958;29;20047;-60
2023/08/11 00:55:08;;;;;;;5.75;3.35;;;;;;;11.65;100.00;101504.66;4954931;29;20051;-60
2023/08/11 00:57:37;;;;;;;9.63;3.80;;;;;;;11.65;100.00;101504.66;4955745;29;20102;-61
2023/08/11 01:00:13;;;;;;;12.18;4.53;;;;;;;11.65;100.00;101510.88;4954091;29;20055;-62
2023/08/11 01:02:42;;;;;;;7.25;3.80;;;;;;;11.65;100.00;101513.56;4954668;28;20055;-60
2023/08/11 01:09:43;;;;;;;7.63;3.55;;;;;;;11.62;100.00;101510.34;4955503;29;20090;-60
2023/08/11 01:12:31;;;;;;;8.63;3.50;;;;;;;11.64;100.00;101508.38;4955118;29;20110;-61
2023/08/11 01:15:16;;;;;;;9.63;3.70;;;;;;;11.65;100.00;101510.88;4954279;28;20048;-61
2023/08/11 01:17:45;;;;;;;10.15;3.78;;;;;;;11.64;100.00;101509.22;4954973;29;20047;-61
2023/08/11 01:20:15;;;;;;;9.73;4.00;;;;;;;11.59;100.00;101513.34;4955240;29;20139;-61
2023/08/11 01:22:50;;;;;;;12.65;4.20;;;;;;;11.61;100.00;101508.66;4954770;29;20051;-61
2023/08/11 01:25:18;;;;;;;10.02;4.00;;;;;;;11.60;100.00;101506.97;4955037;29;20114;-61
2023/08/11 01:27:56;;;;;;;8.55;3.65;;;;;;;11.56;100.00;101513.63;4954985;28;20043;-61
2023/08/11 01:30:25;;;;;;;10.88;4.00;;;;;;;11.51;100.00;101510.53;4953488;29;20110;-61
2023/08/11 01:32:51;;;;;;;7.75;3.70;;;;;;;11.52;100.00;101502.34;4954277;29;20058;-62
2023/08/11 01:35:19;;;;;;;8.45;3.75;;;;;;;11.51;100.00;101502.47;4954609;29;20055;-61
2023/08/11 01:38:04;;;;;;;6.43;3.90;;;;;;;11.49;100.00;101505.31;4952642;29;20061;-61
2023/08/11 01:40:30;;;;;;;14.10;4.07;;;;;;;11.45;100.00;101501.25;4935967;28;20052;-61
2023/08/11 01:43:00;;;;;;;7.07;3.67;;;;;;;11.43;100.00;101489.78;4936440;28;20047;-61
2023/08/11 01:45:28;;;;;;;8.98;3.45;;;;;;;11.41;100.00;101495.31;4935627;28;20048;-61
2023/08/11 01:47:55;;;;;;;13.30;4.30;;;;;;;11.40;100.00;101501.66;4934113;28;20059;-61
2023/08/11 01:50:23;;;;;;;9.93;3.75;;;;;;;11.41;100.00;101498.00;4935642;28;20059;-60
2023/08/11 01:52:52;;;;;;;12.57;3.75;;;;;;;11.39;100.00;101497.28;4935499;28;20492;-60
2023/08/11 01:55:18;;;;;;;9.63;3.33;;;;;;;11.37;100.00;101499.25;4935437;28;20111;-60
2023/08/11 01:57:45;;;;;;;12.60;4.53;;;;;;;11.37;100.00;101507.31;4935655;28;20112;-60
2023/08/11 02:00:25;;;;;;;9.48;3.40;;;;;;;11.36;100.00;101505.63;4935319;28;20052;-60
2023/08/11 02:02:53;;;;;;;10.73;4.03;;;;;;;11.34;100.00;101507.59;4935350;28;20054;-61
2023/08/11 02:05:21;;;;;;;9.55;4.13;;;;;;;11.34;100.00;101512.97;4933521;28;20376;-60
2023/08/11 02:07:48;;;;;;;8.77;3.85;;;;;;;11.33;100.00;101505.09;4935720;28;20067;-61
2023/08/11 02:10:15;;;;;;;9.32;4.20;;;;;;;11.31;100.00;101509.75;4935420;28;20756;-62
2023/08/11 02:12:43;;;;;;;6.60;3.83;;;;;;;11.29;100.00;101512.59;4935529;28;20047;-60
2023/08/11 02:15:12;;;;;;;13.68;4.50;;;;;;;11.29;100.00;101509.91;4937103;28;20056;-61
2023/08/11 02:17:39;;;;;;;10.80;4.13;;;;;;;11.30;100.00;101514.28;4939177;28;20115;-61
2023/08/11 02:20:17;;;;;;;9.63;3.78;;;;;;;11.33;100.00;101508.59;4938494;28;20060;-60
2023/08/11 02:22:44;;;;;;;11.77;4.55;;;;;;;11.34;100.00;101506.75;4938615;28;20051;-61
2023/08/11 02:25:12;;;;;;;10.85;4.47;;;;;;;11.34;100.00;101507.59;4939380;28;20161;-60
2023/08/11 02:27:38;;;;;;;7.55;3.67;;;;;;;11.35;100.00;101498.56;4939194;28;20078;-61
2023/08/11 02:30:06;;;;;;;6.97;3.63;;;;;;;11.36;100.00;101502.09;4938829;28;20052;-62
2023/08/11 02:32:34;;;;;;;7.65;3.78;;;;;;;11.34;100.00;101502.22;4938941;28;20103;-61
2023/08/11 02:35:00;;;;;;;9.77;3.80;;;;;;;11.37;100.00;101501.94;4938922;28;20111;-62
2023/08/11 02:37:27;;;;;;;9.70;3.63;;;;;;;11.39;100.00;101499.13;4939150;28;20067;-61
2023/08/11 02:39:54;;;;;;;6.30;3.58;;;;;;;11.41;100.00;101503.38;4938432;28;22872;-60
2023/08/11 02:42:21;;;;;;;8.02;3.85;;;;;;;11.41;100.00;101503.38;4943010;29;20130;-61
2023/08/11 02:44:48;;;;;;;10.73;4.25;;;;;;;11.41;100.00;101503.38;4957001;29;20102;-60
2023/08/11 02:47:15;;;;;;;10.02;4.20;;;;;;;11.44;100.00;101500.38;4943712;29;20055;-61
2023/08/11 02:49:42;;;;;;;10.57;4.38;;;;;;;11.46;100.00;101505.59;4938210;29;20048;-60
2023/08/11 02:52:09;;;;;;;12.65;4.22;;;;;;;11.46;100.00;101503.75;4938314;29;20067;-60
2023/08/11 02:54:36;;;;;;;7.53;4.30;;;;;;;11.50;100.00;101501.63;4938069;29;20051;-61
2023/08/11 02:57:03;;;;;;;11.68;4.45;;;;;;;11.53;100.00;101497.81;4938869;29;20055;-62
2023/08/11 02:59:30;;;;;;;8.80;4.03;;;;;;;11.55;100.00;101506.56;4937995;29;20047;-62
2023/08/11 03:01:57;;;;;;;8.65;4.75;;;;;;;11.55;100.00;101494.00;4937690;29;20044;-61
2023/08/11 03:04:25;;;;;;;8.48;4.57;;;;;;;11.57;100.00;101494.66;4937821;29;20059;-61
2023/08/11 03:06:52;;;;;;;9.23;4.30;;;;;;;11.58;100.00;101495.50;4938154;29;20102;-61
2023/08/11 03:09:18;;;;;;;21.42;4.72;;;;;;;11.59;100.00;101497.22;4938136;29;20092;-60
2023/08/11 03:11:45;;;;;;;11.65;4.72;;;;;;;11.59;100.00;101498.06;4937863;29;20051;-60
2023/08/11 03:14:11;;;;;;;8.55;4.18;;;;;;;11.61;100.00;101495.22;4937415;29;20055;-61
2023/08/11 03:16:38;;;;;;;14.80;4.93;;;;;;;11.60;100.00;101490.84;4937495;29;20132;-61
2023/08/11 03:19:04;;;;;;;8.75;4.47;;;;;;;11.60;100.00;101493.53;4938140;29;20058;-63
2023/08/11 03:21:32;;;;;;;9.98;4.50;;;;;;;11.58;100.00;101488.28;4938547;29;20055;-61
2023/08/11 03:23:59;;;;;;;8.00;3.88;;;;;;;11.58;100.00;101493.66;4937564;29;20496;-61
2023/08/11 03:26:26;;;;;;;9.98;5.20;;;;;;;11.58;100.00;101488.28;4936928;29;20047;-62
2023/08/11 03:28:52;;;;;;;12.25;5.28;;;;;;;11.58;100.00;101490.97;4934269;29;20520;-69
2023/08/11 03:31:19;;;;;;;11.68;5.10;;;;;;;11.52;100.00;101479.97;4913092;29;20052;-69
2023/08/11 03:33:45;;;;;;;12.32;4.93;;;;;;;11.53;100.00;101492.44;4914990;29;20052;-69
2023/08/11 03:36:12;;;;;;;11.25;4.85;;;;;;;11.43;100.00;101487.94;4914690;29;20132;-68
2023/08/11 03:38:39;;;;;;;13.15;4.95;;;;;;;11.41;100.00;101486.38;4914860;28;20048;-68
2023/08/11 03:41:06;;;;;;;10.10;4.75;;;;;;;11.47;100.00;101485.78;4914788;28;20541;-67
2023/08/11 03:43:33;;;;;;;12.68;5.10;;;;;;;11.49;100.00;101480.28;4915504;28;20059;-69
2023/08/11 03:45:59;;;;;;;11.60;5.15;;;;;;;11.51;100.00;101491.72;4914757;28;20116;-69
2023/08/11 03:48:26;;;;;;;10.18;4.82;;;;;;;11.53;100.00;101493.28;4914774;28;20118;-69
2023/08/11 03:50:52;;;;;;;7.00;4.38;;;;;;;11.56;100.00;101492.13;4914841;28;20127;-69
2023/08/11 03:53:19;;;;;;;12.55;4.53;;;;;;;11.49;100.00;101485.66;4914811;28;20116;-69
2023/08/11 03:55:45;;;;;;;7.97;4.28;;;;;;;11.45;100.00;101493.19;4914509;28;20048;-69
2023/08/11 03:58:14;;;;;;;11.02;4.35;;;;;;;11.41;100.00;101497.13;4914085;28;20059;-69
2023/08/11 04:00:41;;;;;;;8.52;3.92;;;;;;;11.38;100.00;101492.91;4914402;28;20449;-68
2023/08/11 04:03:09;;;;;;;12.18;4.00;;;;;;;11.41;100.00;101491.75;4914187;28;20058;-68
2023/08/11 04:05:36;;;;;;;11.50;3.90;;;;;;;11.40;100.00;101488.22;4914477;28;20052;-67
2023/08/11 04:08:04;;;;;;;8.50;3.90;;;;;;;11.44;100.00;101492.31;4914847;28;20107;-69
2023/08/11 04:10:31;;;;;;;7.60;4.00;;;;;;;11.49;100.00;101496.41;4914657;28;20514;-68
2023/08/11 04:12:57;;;;;;;12.65;3.70;;;;;;;11.49;100.00;101493.72;4914113;28;20052;-67
2023/08/11 04:15:24;;;;;;;9.25;3.80;;;;;;;11.50;100.00;101495.41;4914144;28;20493;-67
2023/08/11 04:17:52;;;;;;;9.82;4.47;;;;;;;11.48;100.00;101490.16;4914150;28;20044;-68
2023/08/11 04:20:18;;;;;;;36.35;7.82;;;;;;;11.49;100.00;101499.94;4914253;28;20052;-68
2023/08/11 04:22:45;;;;;;;10.65;4.35;;;;;;;11.55;100.00;101494.00;4913451;28;20059;-68
2023/08/11 04:25:12;;;;;;;9.45;4.00;;;;;;;11.54;100.00;101488.75;4914693;29;20473;-68
2023/08/11 04:27:41;;;;;;;11.45;4.15;;;;;;;11.52;100.00;101493.41;4914347;29;20048;-69
2023/08/11 04:30:10;;;;;;;11.27;4.10;;;;;;;11.55;100.00;101493.13;4914068;29;20112;-68
2023/08/11 04:32:36;;;;;;;9.95;4.00;;;;;;;11.58;100.00;101495.50;4932608;29;20504;-69
2023/08/11 04:35:09;;;;;;;10.00;3.85;;;;;;;11.56;100.00;101494.81;4933568;29;20058;-69
2023/08/11 04:37:36;;;;;;;11.05;4.07;;;;;;;11.53;100.00;101498.66;4932195;29;20477;-68
2023/08/11 04:40:09;;;;;;;9.43;4.57;;;;;;;11.53;100.00;101495.13;4933507;29;20052;-69
2023/08/11 04:42:35;;;;;;;8.65;4.60;;;;;;;11.53;100.00;101505.88;4933280;29;20393;-68
2023/08/11 04:45:02;;;;;;;12.05;4.82;;;;;;;11.54;100.00;101508.41;4933627;29;20051;-68
2023/08/11 04:47:29;;;;;;;10.68;4.38;;;;;;;11.55;100.00;101504.75;4932840;29;20044;-69
2023/08/11 04:49:57;;;;;;;13.15;4.30;;;;;;;11.58;100.00;101503.56;4932993;29;20467;-68
2023/08/11 04:52:23;;;;;;;13.85;4.57;;;;;;;11.60;100.00;101506.97;4932887;29;20116;-69
2023/08/11 04:54:50;;;;;;;14.80;4.53;;;;;;;11.62;100.00;101505.84;4932891;29;20412;-68
2023/08/11 04:57:16;;;;;;;14.80;5.47;;;;;;;11.61;100.00;101512.19;4932430;29;20138;-68
2023/08/11 04:59:43;;;;;;;15.07;5.40;;;;;;;11.61;100.00;101511.34;4931759;29;20098;-69
2023/08/11 05:02:10;;;;;;;7.80;4.40;;;;;;;11.62;100.00;101515.72;4932673;29;20110;-68
2023/08/11 05:04:38;;;;;;;12.35;4.70;;;;;;;11.62;100.00;101515.72;4932150;29;20423;-68
2023/08/11 05:07:06;;;;;;;19.33;4.63;;;;;;;11.63;100.00;101514.75;4933280;29;20059;-65
2023/08/11 05:09:35;;;;;;;17.17;4.78;;;;;;;11.63;100.00;101518.28;4933013;29;20563;-69
2023/08/11 05:12:02;;;;;;;10.88;5.82;;;;;;;11.65;100.00;101515.41;4932593;29;20043;-68
2023/08/11 05:14:29;;;;;;;10.57;5.43;;;;;;;11.67;100.00;101519.69;4932051;29;20689;-69
2023/08/11 05:16:55;;;;;;;12.77;5.35;;;;;;;11.69;100.00;101527.63;4946766;29;20121;-68
2023/08/11 05:19:22;;;;;;;12.57;4.70;;;;;;;11.72;100.00;101530.00;4945143;29;20119;-69
2023/08/11 05:21:49;;;;;;;16.77;4.97;;;;;;;11.73;100.00;101531.72;4932804;29;20051;-67
2023/08/11 05:24:16;;;;;;;8.60;4.68;;;;;;;11.76;100.00;101539.47;4931953;29;20526;-69
2023/08/11 05:26:42;;;;;;;13.75;5.28;;;;;;;11.79;100.00;101528.41;4931545;29;20039;-67
2023/08/11 05:29:09;;;;;;;14.20;5.25;;;;;;;11.79;100.00;101531.09;4931779;29;20092;-68
2023/08/11 05:31:38;;;;;;;10.85;5.20;;;;;;;11.80;100.00;101534.66;4931971;29;20077;-68
2023/08/11 05:34:04;;;;;;;9.55;5.45;;;;;;;11.89;100.00;101539.13;4932738;29;20489;-69
2023/08/11 05:36:31;;;;;;;13.32;5.50;;;;;;;11.97;100.00;101541.06;4932422;29;20048;-69
2023/08/11 05:38:57;;;;;;;9.35;4.57;;;;;;;12.11;100.00;101540.59;4932196;28;20052;-69
2023/08/11 05:41:24;;;;;;;9.75;4.32;;;;;;;12.17;100.00;101537.25;4930840;28;20418;-69
2023/08/11 05:43:50;;;;;;;9.90;4.47;;;;;;;12.21;100.00;101535.13;4932343;28;20047;-69
2023/08/11 05:46:17;;;;;;;17.77;5.55;;;;;;;12.29;100.00;101540.63;4932406;28;20318;-69
2023/08/11 05:48:48;;;;;;;12.68;4.15;;;;;;;12.38;100.00;101535.16;4933705;28;20043;-68
2023/08/11 05:51:16;;;;;;;15.75;5.00;;;;;;;12.39;100.00;101536.00;4935228;28;20055;-69
2023/08/11 05:53:43;;;;;;;12.05;3.70;;;;;;;12.47;100.00;101538.78;4935982;28;20040;-68
2023/08/11 05:56:10;;;;;;;12.07;4.40;;;;;;;12.55;100.00;101546.06;4935503;28;20110;-67
2023/08/11 05:58:36;;;;;;;13.32;4.32;;;;;;;12.68;100.00;101540.31;4935947;28;20560;-69
2023/08/11 06:01:04;;;;;;;11.95;4.38;;;;;;;12.78;100.00;101539.28;4933637;29;20059;-67
2023/08/11 06:03:31;;;;;;;9.40;3.80;;;;;;;12.96;100.00;101543.78;4935364;28;20043;-69
2023/08/11 06:06:02;;;;;;;11.48;3.80;;;;;;;13.04;100.00;101546.53;4935206;28;20168;-70
2023/08/11 06:08:28;;;;;;;16.02;3.95;;;;;;;13.13;100.00;101545.63;4935525;28;20107;-70
2023/08/11 06:10:55;;;;;;;8.80;3.42;;;;;;;13.23;100.00;101546.38;4935595;28;20078;-68
2023/08/11 06:13:22;;;;;;;8.65;4.35;;;;;;;13.37;100.00;101539.56;4934762;28;20051;-68
2023/08/11 06:15:50;;;;;;;13.48;4.22;;;;;;;13.43;100.00;101541.63;4935612;29;20052;-68
2023/08/11 06:18:18;;;;;;;14.80;4.57;;;;;;;13.52;100.00;101545.19;4935916;29;20055;-69
2023/08/11 06:20:45;;;;;;;16.48;4.50;;;;;;;13.67;100.00;101548.16;4934829;29;20055;-68
2023/08/11 06:23:12;;;;;;;11.57;4.22;;;;;;;13.74;100.00;101552.75;4934794;29;20051;-68
2023/08/11 06:25:39;;;;;;;9.00;3.67;;;;;;;13.77;100.00;101549.75;4934818;29;20103;-68
2023/08/11 06:28:07;;;;;;;9.45;3.58;;;;;;;13.83;100.00;101559.03;4934867;29;20055;-65
2023/08/11 06:30:34;;;;;;;9.52;3.95;;;;;;;13.85;100.00;101551.66;4935248;29;20051;-69
2023/08/11 06:33:01;;;;;;;7.72;3.28;;;;;;;13.79;100.00;101545.03;4934417;29;20047;-68
2023/08/11 06:35:29;;;;;;;9.40;3.65;;;;;;;13.87;100.00;101543.38;4935066;29;20055;-68
2023/08/11 06:37:57;;;;;;;5.20;2.97;;;;;;;14.00;100.00;101554.56;4934615;29;20408;-67
2023/08/11 06:40:23;;;;;;;9.63;3.67;;;;;;;14.11;100.00;101554.25;4935647;28;20056;-69
2023/08/11 06:42:50;;;;;;;8.15;3.15;;;;;;;14.19;100.00;101553.47;4935553;28;20052;-67
2023/08/11 06:45:17;;;;;;;8.27;3.40;;;;;;;14.23;100.00;101566.47;4935131;28;20056;-68
2023/08/11 06:47:43;;;;;;;6.93;3.63;;;;;;;14.32;100.00;101567.31;4934293;28;20078;-68
2023/08/11 06:50:10;;;;;;;17.65;4.85;;;;;;;14.29;100.00;101565.81;4934998;28;20102;-66
2023/08/11 06:52:37;;;;;;;13.23;5.15;;;;;;;14.30;100.00;101572.91;4934082;28;20048;-70
2023/08/11 06:55:05;;;;;;;11.63;3.28;;;;;;;14.22;100.00;101575.59;4941452;29;20476;-68
2023/08/11 06:57:31;;;;;;;11.80;4.53;;;;;;;14.36;100.00;101576.81;4954578;29;20504;-69
2023/08/11 06:59:58;;;;;;;7.40;3.60;;;;;;;14.33;100.00;101570.88;4952053;28;20423;-69
2023/08/11 07:02:25;;;;;;;11.88;3.10;;;;;;;14.38;100.00;101579.34;4953999;29;20146;-69
2023/08/11 07:04:52;;;;;;;7.82;3.20;;;;;;;14.43;100.00;101582.41;4953145;29;20047;-69
2023/08/11 07:07:18;;;;;;;6.72;3.58;;;;;;;14.47;100.00;101589.16;4953662;29;20448;-69
2023/08/11 07:09:45;;;;;;;13.40;4.07;;;;;;;14.48;100.00;101586.28;4952583;29;20517;-69
2023/08/11 07:12:11;;;;;;;10.55;3.13;;;;;;;14.56;100.00;101590.00;4953707;29;20110;-68
2023/08/11 07:14:39;;;;;;;10.00;3.22;;;;;;;14.55;100.00;101591.84;4953876;29;20058;-70
2023/08/11 07:17:05;;;;;;;17.17;3.40;;;;;;;14.62;100.00;101575.84;4953810;29;20471;-64
2023/08/11 07:19:32;;;;;;;13.20;3.20;;;;;;;14.83;100.00;101584.34;4954375;29;20047;-68
2023/08/11 07:21:59;;;;;;;12.20;3.15;;;;;;;14.77;100.00;101579.59;4953725;29;20054;-70
2023/08/11 07:24:25;;;;;;;13.00;3.47;;;;;;;14.99;100.00;101581.66;4953856;29;20115;-69
2023/08/11 07:26:52;;;;;;;7.95;2.80;;;;;;;15.19;100.00;101584.88;4953997;29;20097;-69
2023/08/11 07:29:18;;;;;;;7.05;2.60;;;;;;;15.42;100.00;101579.59;4951845;29;20195;-70
2023/08/11 07:31:45;;;;;;;9.23;2.72;;;;;;;15.65;100.00;101590.59;4952587;29;20051;-68
2023/08/11 07:34:12;;;;;;;7.60;2.47;;;;;;;15.77;100.00;101584.78;4941425;29;20078;-68
2023/08/11 07:36:40;;;;;;;12.07;2.70;;;;;;;16.06;100.00;101598.59;4932365;29;20056;-68
2023/08/11 07:39:09;;;;;;;6.90;2.70;;;;;;;16.33;100.00;101600.00;4932948;28;20059;-70
2023/08/11 07:41:39;;;;;;;4.93;2.22;;;;;;;16.65;100.00;101598.97;4933832;28;20044;-70
2023/08/11 07:44:06;;;;;;;8.15;2.28;;;;;;;17.01;100.00;101592.13;4934444;28;20055;-68
2023/08/11 07:46:32;;;;;;;5.05;2.10;;;;;;;17.00;100.00;101591.28;4934924;28;20051;-68
2023/08/11 07:48:59;;;;;;;7.13;2.05;;;;;;;17.13;100.00;101588.81;4933790;28;20051;-67
2023/08/11 07:51:27;;;;;;;9.07;2.17;;;;;;;17.34;100.00;101590.84;4934225;28;20047;-69
2023/08/11 07:53:54;;;;;;;7.85;1.90;;;;;;;17.75;100.00;101589.56;4934083;28;20079;-70
2023/08/11 07:56:21;;;;;;;7.22;2.08;;;;;;;17.66;100.00;101586.13;4934052;28;20134;-68
2023/08/11 07:58:47;;;;;;;10.05;2.63;;;;;;;18.04;100.00;101596.88;4934330;28;20043;-69
2023/08/11 08:01:14;;;;;;;9.40;2.50;;;;;;;18.27;100.00;101597.66;4934018;28;20115;-68
2023/08/11 08:03:41;;;;;;;6.53;1.75;;;;;;;18.14;99.58;101593.88;4934074;28;20052;-68
2023/08/11 08:06:08;;;;;;;5.75;1.95;;;;;;;18.45;95.82;101590.97;4933961;28;20130;-69
2023/08/11 08:08:34;;;;;;;9.32;2.17;;;;;;;18.49;96.43;101589.53;4934553;28;20056;-69
2023/08/11 08:11:02;;;;;;;6.75;2.08;;;;;;;18.84;95.61;101590.53;4933947;28;20052;-67
2023/08/11 08:13:29;;;;;;;8.05;2.20;;;;;;;19.42;85.87;101580.41;4933458;28;20074;-68
2023/08/11 08:15:56;;;;;;;6.45;2.35;;;;;;;19.31;82.72;101578.22;4933735;28;20059;-67
2023/08/11 08:18:23;;;;;;;8.40;2.08;;;;;;;19.45;82.15;101582.72;4933896;28;20066;-69
2023/08/11 08:20:51;;;;;;;5.53;2.17;;;;;;;19.76;78.85;101575.19;4933866;28;20051;-67
2023/08/11 08:23:18;;;;;;;9.15;1.95;;;;;;;19.87;75.22;101580.94;4933591;28;20059;-68
2023/08/11 08:25:44;;;;;;;7.15;1.90;;;;;;;19.98;74.49;101567.78;4933956;28;20048;-67
2023/08/11 08:28:12;;;;;;;6.90;2.03;;;;;;;20.31;75.39;101573.34;4933735;28;20044;-68
2023/08/11 08:30:39;;;;;;;4.18;1.55;;;;;;;20.52;71.81;101573.25;4933104;28;20047;-68
2023/08/11 08:33:06;;;;;;;8.05;1.95;;;;;;;20.52;69.49;101572.41;4932229;28;20059;-64
2023/08/11 08:35:34;;;;;;;4.80;1.80;;;;;;;21.17;66.17;101573.56;4934030;28;20063;-68
2023/08/11 08:38:00;;;;;;;7.20;1.80;;;;;;;21.98;60.15;101569.66;4933454;28;20052;-68
2023/08/11 08:40:27;;;;;;;7.50;1.90;;;;;;;21.61;59.92;101581.09;4933497;29;20051;-68
2023/08/11 08:42:54;;;;;;;6.15;2.13;;;;;;;21.76;61.05;101575.38;4933477;29;20048;-67
2023/08/11 08:45:21;;;;;;;5.55;1.88;;;;;;;21.91;60.71;101577.91;4933040;29;20111;-69
2023/08/11 08:47:50;;;;;;;4.60;1.63;;;;;;;22.33;57.39;101575.63;4933141;29;20134;-68
2023/08/11 08:50:18;;;;;;;8.30;1.98;;;;;;;22.80;55.17;101574.31;4933117;29;20448;-69
2023/08/11 08:52:46;;;;;;;4.13;1.50;;;;;;;22.54;54.64;101578.06;4933401;29;20047;-67
2023/08/11 08:55:12;;;;;;;3.95;1.23;;;;;;;22.47;54.27;101581.91;4933180;29;20059;-68
2023/08/11 08:57:39;;;;;;;9.10;1.70;;;;;;;21.81;56.73;101581.09;4932837;29;20051;-69
2023/08/11 09:00:07;;;;;;;7.47;1.63;;;;;;;21.79;57.02;101577.72;4932554;29;20174;-64
2023/08/11 09:02:35;;;;;;;10.07;3.00;;;;;;;22.02;57.40;101579.97;4933421;29;20071;-68
2023/08/11 09:05:02;;;;;;;7.60;1.90;;;;;;;22.37;55.38;101571.41;4933084;29;20465;-69
2023/08/11 09:07:29;;;;;;;6.13;1.42;;;;;;;22.35;54.67;101569.94;4933045;29;20051;-68
2023/08/11 09:09:55;;;;;;;8.45;1.70;;;;;;;22.58;54.66;101577.63;4932988;29;20079;-69
2023/08/11 09:12:25;;;;;;;4.28;1.38;;;;;;;23.03;52.89;101576.47;4932916;29;20119;-69
2023/08/11 09:14:52;;;;;;;4.53;1.48;;;;;;;23.69;51.54;101569.56;4932903;29;20047;-68
2023/08/11 09:17:19;;;;;;;6.70;1.40;;;;;;;24.01;51.31;101574.91;4932706;29;20056;-69
2023/08/11 09:19:52;;;;;;;10.25;1.35;;;;;;;23.43;50.59;101580.78;4933153;29;20051;-67
2023/08/11 09:22:24;;;;;;;8.77;1.63;;;;;;;23.26;50.08;101578.63;4932648;29;20115;-68
2023/08/11 09:24:51;;;;;;;7.07;1.40;;;;;;;24.23;48.78;101574.44;4938913;29;20051;-67
2023/08/11 09:27:17;;;;;;;4.00;1.30;;;;;;;24.43;48.68;101580.53;4939138;29;20118;-68
2023/08/11 09:29:44;;;;;;;5.53;1.45;;;;;;;24.78;46.91;101588.03;4939377;29;20111;-68
2023/08/11 09:32:11;;;;;;;6.00;1.52;;;;;;;23.89;47.61;101579.50;4939033;29;20427;-68
2023/08/11 09:34:39;;;;;;;2.40;1.23;;;;;;;24.11;48.23;101579.88;4939478;29;20048;-68
2023/08/11 09:37:06;;;;;;;5.75;1.52;;;;;;;24.20;47.13;101583.97;4939560;29;20110;-68
2023/08/11 09:39:32;;;;;;;2.17;1.13;;;;;;;24.10;47.34;101586.44;4939557;28;20058;-69
2023/08/11 09:42:00;;;;;;;5.25;1.40;;;;;;;23.25;49.27;101598.00;4939427;28;20108;-70
2023/08/11 09:44:27;;;;;;;4.20;1.20;;;;;;;23.02;51.08;101593.97;4939070;28;20048;-69
2023/08/11 09:46:53;;;;;;;6.18;0.90;;;;;;;23.43;47.31;101589.84;4937209;28;20040;-68
2023/08/11 09:49:20;;;;;;;3.20;1.13;;;;;;;23.59;47.24;101590.31;4938300;28;20135;-69
2023/08/11 09:51:49;;;;;;;4.07;0.98;;;;;;;23.08;48.48;101594.13;4937240;28;20424;-69
2023/08/11 09:54:18;;;;;;;1.38;0.80;;;;;;;23.23;48.99;101584.56;4937169;28;20048;-68
2023/08/11 09:56:44;;;;;;;3.25;1.30;;;;;;;23.71;47.17;101593.97;4938853;28;20538;-67
2023/08/11 09:59:16;;;;;;;5.43;1.15;;;;;;;23.37;46.01;101587.19;4938627;28;20068;-67
2023/08/11 10:01:44;;;;;;;5.40;0.98;;;;;;;23.30;47.27;101594.63;4938957;28;20393;-66
2023/08/11 10:04:48;;;;;;;3.60;1.30;;;;;;;23.02;48.03;101591.22;4938544;28;20408;-68
2023/08/11 10:07:18;;;;;;;3.17;1.10;;;;;;;22.94;48.62;101594.22;4938283;28;20055;-67
2023/08/11 10:09:49;;;;;;;4.55;1.10;;;;;;;23.12;48.82;101590.75;4937973;28;20054;-69
2023/08/11 10:12:16;;;;;;;;;;;;;;;23.37;48.19;101590.75;4938533;28;20051;-63
2023/08/11 10:14:43;;;;;;;3.55;0.80;;;;;;;23.84;47.45;101590.31;4937915;28;20025;-64
2023/08/11 10:17:11;;;;;;;2.70;1.00;;;;;;;24.24;46.37;101590.66;4937586;28;20055;-64
2023/08/11 10:19:39;;;;;;;9.00;1.20;;;;;;;23.77;46.49;101587.63;4938300;28;20048;-63
2023/08/11 10:22:06;;;;;;;6.50;1.00;;;;;;;24.01;47.09;101587.78;4938103;28;20527;-63
2023/08/11 10:24:37;;;;;;;2.85;1.27;;;;;;;24.02;47.05;101579.31;4938247;28;20095;-63
2023/08/11 10:27:05;;;;;;;3.72;1.20;;;;;;;24.16;45.95;101588.22;4938033;28;20052;-63
2023/08/11 10:29:36;;;;;;;4.05;1.20;;;;;;;24.02;46.61;101583.97;4937557;28;20052;-63
2023/08/11 10:32:03;;;;;;;4.80;0.90;;;;;;;25.30;43.71;101583.63;4937560;28;20051;-63
2023/08/11 10:34:31;;;;;;;3.97;1.17;;;;;;;25.33;43.52;101571.31;4935920;28;20111;-63
2023/08/11 10:36:58;;;;;;;2.90;0.80;;;;;;;25.96;42.66;101573.34;4934027;28;20456;-64
2023/08/11 10:39:25;;;;;;;5.93;1.33;;;;;;;27.16;40.37;101571.47;4934611;28;20048;-63
2023/08/11 10:41:55;;;;;;;3.67;0.90;;;;;;;26.49;41.03;101577.72;4934326;28;20099;-62
2023/08/11 10:44:28;;;;;;;3.95;1.42;;;;;;;25.46;42.51;101565.59;4934286;28;20051;-63
2023/08/11 10:46:59;;;;;;;4.10;0.95;;;;;;;25.33;43.49;101566.66;4934453;28;20480;-63
2023/08/11 10:49:34;;;;;;;3.60;0.90;;;;;;;26.25;42.21;101565.97;4934388;28;20449;-62
2023/08/11 10:52:02;;;;;;;2.42;1.10;;;;;;;26.69;41.48;101570.91;4934325;28;20048;-63
2023/08/11 10:54:29;;;;;;;3.65;1.10;;;;;;;27.05;40.25;101568.81;4934635;28;20043;-63
2023/08/11 10:56:59;;;;;;;3.30;1.02;;;;;;;27.81;39.32;101566.38;4933449;28;20062;-63
2023/08/11 10:59:29;;;;;;;;;;;;;;;27.20;40.26;101567.13;4935233;28;20511;-63
2023/08/11 11:01:57;;;;;;;7.28;1.08;;;;;;;27.54;39.68;101566.28;4934065;28;22551;-64
2023/08/11 11:04:29;;;;;;;6.85;1.30;;;;;;;27.88;39.32;101565.13;4933967;28;20103;-64
2023/08/11 11:06:57;;;;;;;6.45;1.17;;;;;;;27.78;39.25;101567.72;4934387;28;20134;-63
2023/08/11 11:09:25;;;;;;;4.25;1.40;;;;;;;27.24;39.06;101561.94;4934641;28;20051;-63
2023/08/11 11:11:52;;;;;;;5.65;0.90;;;;;;;26.93;40.01;101557.88;4933796;28;20078;-63
2023/08/11 11:14:19;;;;;;;2.95;1.23;;;;;;;26.83;40.46;101554.94;4934366;28;20562;-62
2023/08/11 11:16:45;;;;;;;6.55;1.27;;;;;;;26.91;41.00;101558.13;4933553;28;20050;-63
2023/08/11 11:19:12;;;;;;;2.97;1.10;;;;;;;26.96;40.64;101554.63;4933238;28;20051;-63
2023/08/11 11:21:42;;;;;;;6.35;1.08;;;;;;;26.51;42.17;101552.69;4934436;28;20048;-64
2023/08/11 11:24:09;;;;;;;6.00;1.10;;;;;;;26.92;41.11;101548.78;4933977;28;20051;-63